CheckWX is a tool to help pilots better visualize weather data.  It is not intended as a substitute for an official pre-flight weather briefing.

13:22:31 UTC

KMOR METAR
Moore-Murrell Airport
Morristown, Tennessee, USA
Current

8 mins ago

KMOR 211315Z AUTO 00000KT 10SM CLR 22/17 A3035 RMK A01
Observed
Sep-21 @ 13:15 UTC
Visibility
10 SM
Flight Rules
VFR
Cloud Levels
  • Clear skies
Temperature
22°C / 72°F
Dewpoint
17°C / 63°F
Humidity
73%
Altimeter
30.35" Hg
Pressure
1027.82 hPa
Previous

28 mins ago

KMOR 211255Z AUTO 00000KT 10SM CLR 20/17 A3034 RMK A01
Observed
Sep-21 @ 12:55 UTC
Visibility
10 SM
Flight Rules
VFR
Cloud Levels
  • Clear skies
Temperature
20°C / 68°F
Dewpoint
17°C / 63°F
Humidity
83%
Altimeter
30.34" Hg
Pressure
1027.42 hPa
Previous

48 mins ago

KMOR 211235Z AUTO 00000KT 10SM FEW090 19/17 A3034 RMK A01
Observed
Sep-21 @ 12:35 UTC
Visibility
10 SM
Flight Rules
VFR
Cloud Levels
  • Few at 9,000' AGL
Temperature
19°C / 66°F
Dewpoint
17°C / 63°F
Humidity
88%
Altimeter
30.34" Hg
Pressure
1027.42 hPa